Time;durP1;ratioP1;P1;durP2;ratioP2;P2;SDS_P1;SDS_P2;PMS_P1;PMS_P2;Temp;Humidity;BMP_temperature;BMP_pressure;BME280_temperature;BME280_humidity;BME280_pressure;Samples;Min_cycle;Max_cycle;Signal;HPM_P1;HPM_P2
2023/04/18 00:19:30;;;;;;;9.00;6.60;;;;;;;8.39;95.21;99068.01;433936;1260;107387;-40
2023/04/18 00:29:37;;;;;;;9.40;7.80;;;;;;;8.39;95.32;99067.16;433899;1257;97175;-42
2023/04/18 00:39:44;;;;;;;12.10;8.60;;;;;;;8.37;95.82;99068.83;433930;1261;108608;-40
2023/04/18 00:49:51;;;;;;;14.40;8.90;;;;;;;8.34;95.77;99068.34;433904;1258;96424;-41
2023/04/18 00:59:59;;;;;;;11.50;8.60;;;;;;;8.32;96.06;99061.23;434167;1257;107717;-40
2023/04/18 01:10:05;;;;;;;10.50;8.50;;;;;;;8.29;96.24;99059.08;433804;1262;107982;-41
2023/04/18 01:20:15;;;;;;;13.90;8.80;;;;;;;8.28;96.47;99058.98;433892;1257;96521;-40
2023/04/18 01:30:23;;;;;;;10.10;8.40;;;;;;;8.27;96.46;99057.48;433811;1262;109031;-40
2023/04/18 01:40:30;;;;;;;9.20;7.60;;;;;;;8.23;96.70;99057.08;433729;1262;96141;-41
2023/04/18 01:50:37;;;;;;;11.20;7.30;;;;;;;8.21;96.96;99059.80;433747;1257;108291;-40
2023/04/18 02:00:44;;;;;;;11.70;6.60;;;;;;;8.20;96.76;99060.77;433766;1262;107370;-41
2023/04/18 02:10:51;;;;;;;9.80;7.00;;;;;;;8.16;96.95;99060.05;434046;1257;96549;-41
2023/04/18 02:20:59;;;;;;;9.00;6.70;;;;;;;8.12;96.92;99060.34;434053;1260;108804;-40
2023/04/18 02:31:06;;;;;;;12.50;8.00;;;;;;;8.08;97.26;99059.05;433978;1257;96547;-41
2023/04/18 02:51:20;;;;;;;17.20;10.70;;;;;;;7.99;98.05;99055.38;434010;1260;107599;-40
2023/04/18 03:01:27;;;;;;;17.80;12.70;;;;;;;7.94;98.68;99054.33;434151;1257;95568;-41
2023/04/18 03:11:34;;;;;;;17.60;12.10;;;;;;;7.92;98.98;99059.00;434122;1260;108334;-41
2023/04/18 03:21:41;;;;;;;19.90;13.00;;;;;;;7.93;98.87;99055.51;436293;1261;95284;-39
2023/04/18 03:31:48;;;;;;;20.70;13.70;;;;;;;7.93;99.02;99061.58;436447;1253;109362;-40
2023/04/18 03:41:55;;;;;;;19.70;12.60;;;;;;;7.93;99.57;99063.70;436362;1251;108517;-40
2023/04/18 03:52:03;;;;;;;18.20;12.70;;;;;;;7.93;99.36;99072.33;436484;1248;95672;-40
2023/04/18 04:02:10;;;;;;;19.60;12.20;;;;;;;7.94;99.64;99080.91;436286;1261;108413;-40
2023/04/18 04:12:17;;;;;;;20.60;12.20;;;;;;;7.94;99.90;99094.04;436382;1248;95431;-40
2023/04/18 04:22:24;;;;;;;21.90;13.90;;;;;;;7.95;99.93;99112.98;436429;1253;107793;-40
2023/04/18 04:32:31;;;;;;;25.50;16.50;;;;;;;7.95;99.93;99121.25;436365;1251;108288;-40
2023/04/18 04:52:45;;;;;;;24.20;15.00;;;;;;;7.92;100.00;99131.34;436304;1253;107996;-40
2023/04/18 05:12:58;;;;;;;27.40;17.30;;;;;;;7.94;100.00;99143.34;435880;1249;108629;-40
2023/04/18 05:23:05;;;;;;;26.90;17.00;;;;;;;7.96;100.00;99153.58;435834;1249;107409;-41
2023/04/18 05:33:12;;;;;;;30.20;17.40;;;;;;;8.02;100.00;99156.59;435765;1250;96777;-40
2023/04/18 05:43:18;;;;;;;29.70;16.50;;;;;;;8.11;100.00;99167.56;435725;1252;107485;-41
2023/04/18 05:53:25;;;;;;;42.40;17.80;;;;;;;8.24;100.00;99172.67;435687;1250;95269;-39
2023/04/18 06:03:32;;;;;;;23.80;16.00;;;;;;;8.41;100.00;99169.44;435965;1249;109958;-40
2023/04/18 06:13:40;;;;;;;21.60;12.70;;;;;;;8.58;99.98;99172.45;435642;1254;106694;-40
2023/04/18 06:23:45;;;;;;;18.00;12.50;;;;;;;8.81;99.68;99174.21;435832;1252;96654;-41
2023/04/18 06:33:51;;;;;;;23.10;14.40;;;;;;;9.18;99.15;99179.94;435610;1252;107158;-40
2023/04/18 06:43:58;;;;;;;28.20;15.00;;;;;;;9.60;98.29;99188.37;435681;1249;95617;-40
2023/04/18 06:54:10;;;;;;;22.80;13.10;;;;;;;9.86;97.12;99187.03;435928;1250;108076;-39
2023/04/18 07:04:18;;;;;;;16.30;12.00;;;;;;;10.03;96.27;99198.33;435674;1252;107703;-42
2023/04/18 07:14:27;;;;;;;19.70;13.20;;;;;;;10.09;94.55;99193.04;435730;1253;96089;-42
2023/04/18 07:24:34;;;;;;;15.00;10.80;;;;;;;10.23;92.42;99199.19;435801;1252;107940;-41
2023/04/18 07:34:42;;;;;;;23.40;13.30;;;;;;;10.52;91.78;99201.61;435707;1250;107599;-39
2023/04/18 07:44:49;;;;;;;17.90;12.00;;;;;;;10.82;90.51;99206.33;435691;1249;95452;-40
2023/04/18 07:54:57;;;;;;;19.70;13.30;;;;;;;11.07;89.24;99208.20;435650;1250;107779;-41
2023/04/18 08:05:04;;;;;;;19.20;12.50;;;;;;;11.11;87.90;99205.33;435582;1252;96197;-41
2023/04/18 08:15:13;;;;;;;20.40;13.80;;;;;;;11.05;86.74;99214.87;435622;1252;108233;-41
2023/04/18 08:25:21;;;;;;;16.30;11.90;;;;;;;11.21;86.45;99220.25;435819;1252;107418;-41
2023/04/18 08:35:28;;;;;;;20.00;14.50;;;;;;;11.38;85.13;99233.41;435676;1252;96022;-40
2023/04/18 08:55:43;;;;;;;22.30;16.90;;;;;;;11.39;83.48;99252.14;435655;1250;107888;-41
2023/04/18 09:17:32;;;;;;;23.50;15.10;;;;;;;12.02;82.28;99241.98;435505;1254;108102;-41
2023/04/18 09:27:40;;;;;;;20.50;13.80;;;;;;;11.93;80.97;99242.00;435408;1250;108794;-41
2023/04/18 09:37:51;;;;;;;21.40;15.10;;;;;;;12.25;79.91;99248.44;435360;1250;95445;-41
2023/04/18 09:47:58;;;;;;;18.10;14.40;;;;;;;12.30;78.40;99248.45;435472;1256;109084;-41
2023/04/18 09:58:07;;;;;;;14.70;11.30;;;;;;;12.39;77.99;99234.23;435372;1255;107938;-40
2023/04/18 10:08:16;;;;;;;17.20;10.40;;;;;;;12.98;75.66;99226.08;435431;1250;95311;-40
2023/04/18 10:28:49;;;;;;;15.30;10.80;;;;;;;13.37;72.97;99217.69;435526;1256;108073;-41
2023/04/18 10:38:59;;;;;;;21.00;10.70;;;;;;;13.46;71.58;99206.94;435446;1250;107545;-40
2023/04/18 10:49:21;;;;;;;11.00;8.90;;;;;;;14.00;70.45;99200.94;435338;1265;96381;-39
2023/04/18 10:59:34;;;;;;;14.00;10.50;;;;;;;13.98;69.41;99197.23;435489;1250;110125;-41
2023/04/18 11:09:41;;;;;;;22.40;11.40;;;;;;;14.10;68.86;99188.67;435508;1251;107801;-40
2023/04/18 11:19:59;;;;;;;14.20;10.80;;;;;;;14.09;67.99;99184.04;435476;1254;96121;-41
2023/04/18 11:40:18;;;;;;;13.90;9.80;;;;;;;14.07;68.22;99188.20;435683;1252;109205;-41
2023/04/18 11:50:27;;;;;;;12.20;9.40;;;;;;;13.97;68.38;99183.59;436010;1254;109163;-40
2023/04/18 12:00:36;;;;;;;10.90;8.60;;;;;;;14.33;66.80;99178.13;435693;1254;96033;-41
2023/04/18 12:31:01;;;;;;;15.10;12.50;;;;;;;14.74;61.71;99168.73;435573;1254;95281;-40
2023/04/18 12:41:08;;;;;;;19.00;13.50;;;;;;;14.68;63.54;99169.91;435424;1253;95265;-39
2023/04/18 12:51:15;;;;;;;23.70;13.30;;;;;;;14.69;65.69;99162.77;435439;1255;108920;-41
2023/04/18 13:01:22;;;;;;;13.80;11.90;;;;;;;14.69;64.89;99165.98;435422;1255;108616;-41
2023/04/18 13:11:30;;;;;;;20.10;12.70;;;;;;;14.50;64.82;99155.23;435326;1255;95294;-40
2023/04/18 13:21:37;;;;;;;16.50;12.60;;;;;;;14.70;64.55;99147.25;435303;1256;95276;-39
2023/04/18 13:31:45;;;;;;;13.70;10.60;;;;;;;14.75;64.37;99146.67;435423;1250;109417;-41
2023/04/18 13:41:52;;;;;;;13.80;11.00;;;;;;;14.91;64.07;99144.27;435485;1250;108067;-41
2023/04/18 13:52:00;;;;;;;12.40;9.20;;;;;;;15.16;62.97;99142.13;435319;1256;96109;-41
2023/04/18 14:02:10;;;;;;;11.50;8.90;;;;;;;15.07;62.36;99140.52;435450;1251;95850;-39
2023/04/18 14:12:53;;;;;;;13.80;9.40;;;;;;;15.27;61.13;99140.08;435321;1254;108495;-44
2023/04/18 14:23:00;;;;;;;15.30;9.80;;;;;;;14.71;60.77;99140.41;435404;1255;108600;-41
2023/04/18 14:33:09;;;;;;;17.50;11.10;;;;;;;14.26;62.19;99141.98;435347;1254;96125;-40
2023/04/18 14:43:16;;;;;;;19.00;14.90;;;;;;;14.01;64.01;99145.86;435430;1263;95446;-41
2023/04/18 14:53:23;;;;;;;20.40;14.30;;;;;;;13.66;66.18;99146.98;435330;1256;109620;-40
2023/04/18 15:03:30;;;;;;;20.10;14.40;;;;;;;13.53;67.70;99143.34;435496;1253;107808;-41
2023/04/18 15:13:38;;;;;;;21.50;15.00;;;;;;;13.55;68.46;99140.42;435539;1256;97056;-40
2023/04/18 15:23:46;;;;;;;15.60;11.00;;;;;;;13.66;68.70;99136.66;435295;1256;106550;-41
2023/04/18 15:33:54;;;;;;;19.90;12.60;;;;;;;13.70;69.16;99141.30;435398;1254;97488;-39
2023/04/18 15:44:02;;;;;;;18.30;13.50;;;;;;;13.40;68.94;99149.02;435436;1256;110260;-41
2023/04/18 15:54:10;;;;;;;17.40;12.40;;;;;;;13.13;69.54;99155.55;435195;1251;109137;-41
2023/04/18 16:04:16;;;;;;;12.10;8.40;;;;;;;12.77;69.85;99161.06;435455;1256;97867;-41
2023/04/18 16:14:24;;;;;;;15.80;9.30;;;;;;;11.89;69.65;99172.95;435405;1251;109986;-44
2023/04/18 16:24:31;;;;;;;11.20;7.60;;;;;;;11.24;70.79;99163.45;435404;1256;109346;-40
2023/04/18 16:34:38;;;;;;;18.50;12.60;;;;;;;11.25;71.73;99164.71;435314;1255;97874;-40
2023/04/18 16:44:46;;;;;;;17.80;11.60;;;;;;;11.30;72.30;99162.85;435380;1251;108246;-41
2023/04/18 16:54:53;;;;;;;20.70;14.10;;;;;;;11.39;72.78;99164.55;435422;1254;97897;-39
2023/04/18 17:05:00;;;;;;;20.40;14.40;;;;;;;11.49;73.04;99162.70;435390;1253;109645;-41
2023/04/18 17:15:08;;;;;;;23.30;15.70;;;;;;;11.64;73.46;99158.58;435131;1259;109411;-41
2023/04/18 17:25:16;;;;;;;25.90;16.50;;;;;;;11.73;73.59;99158.84;435236;1254;97902;-40
2023/04/18 17:35:23;;;;;;;22.70;16.10;;;;;;;11.69;74.07;99155.38;435476;1254;108577;-40
2023/04/18 17:45:30;;;;;;;23.50;15.30;;;;;;;11.60;74.21;99156.77;435337;1251;96649;-41
2023/04/18 17:55:36;;;;;;;21.60;15.50;;;;;;;11.52;74.29;99152.77;435299;1253;110353;-41
2023/04/18 18:05:47;;;;;;;23.40;16.20;;;;;;;11.49;74.57;99156.92;435187;1254;109085;-41
2023/04/18 18:26:02;;;;;;;33.90;19.90;;;;;;;11.35;75.11;99158.56;435402;1250;107998;-39
2023/04/18 18:36:10;;;;;;;34.60;20.70;;;;;;;11.31;75.17;99153.02;435408;1250;97896;-40
2023/04/18 18:46:17;;;;;;;31.60;19.10;;;;;;;11.32;75.40;99151.50;435324;1254;110858;-41
2023/04/18 18:56:25;;;;;;;31.20;18.90;;;;;;;11.35;75.74;99151.83;435299;1253;107687;-41
2023/04/18 19:06:32;;;;;;;27.30;18.70;;;;;;;11.30;75.89;99144.85;435231;1263;97857;-41
2023/04/18 19:16:40;;;;;;;26.30;18.80;;;;;;;11.19;76.20;99140.88;435392;1251;109364;-41
2023/04/18 19:26:47;;;;;;;30.40;18.80;;;;;;;11.10;76.26;99130.45;435377;1255;107602;-41
2023/04/18 19:36:55;;;;;;;35.00;19.40;;;;;;;11.09;76.65;99124.76;435317;1264;97874;-39
2023/04/18 19:47:02;;;;;;;39.90;21.90;;;;;;;11.11;76.91;99118.30;435592;1251;110357;-40
2023/04/18 19:57:10;;;;;;;40.90;24.90;;;;;;;11.10;77.28;99114.33;435361;1254;109258;-41
2023/04/18 20:07:18;;;;;;;40.90;24.80;;;;;;;10.97;77.62;99106.55;435376;1254;97867;-41
2023/04/18 20:27:32;;;;;;;49.00;29.90;;;;;;;10.87;78.15;99093.58;435236;1253;109263;-40
2023/04/18 20:37:40;;;;;;;50.30;28.80;;;;;;;10.89;78.58;99086.66;435333;1250;97970;-41
2023/04/18 20:47:47;;;;;;;39.90;26.50;;;;;;;10.89;78.72;99077.77;435330;1251;107295;-42
2023/04/18 20:57:54;;;;;;;45.90;28.50;;;;;;;10.84;78.97;99071.91;435304;1253;96634;-42
2023/04/18 21:08:02;;;;;;;47.30;29.00;;;;;;;10.69;79.21;99066.02;435423;1254;111615;-40
2023/04/18 21:18:09;;;;;;;44.30;26.20;;;;;;;10.54;79.26;99050.44;435298;1253;108322;-42
2023/04/18 21:48:31;;;;;;;35.00;22.90;;;;;;;10.54;79.82;99030.34;435292;1254;107750;-41
2023/04/18 21:58:38;;;;;;;39.80;27.20;;;;;;;10.42;79.96;99021.42;435392;1256;97951;-41
2023/04/18 22:08:45;;;;;;;41.50;24.90;;;;;;;10.25;80.11;99015.09;435520;1251;110364;-41
2023/04/18 22:18:53;;;;;;;33.40;22.50;;;;;;;10.16;80.13;99009.52;435113;1251;340889;-41
2023/04/18 22:29:00;;;;;;;34.50;21.20;;;;;;;10.11;80.45;98999.89;435286;1254;96641;-40
2023/04/18 22:39:07;;;;;;;32.70;19.80;;;;;;;10.08;80.57;98990.29;435250;1254;110388;-45
2023/04/18 22:49:16;;;;;;;24.60;16.70;;;;;;;10.05;80.69;98981.10;435224;1254;108362;-40
2023/04/18 22:59:23;;;;;;;22.90;16.60;;;;;;;10.06;80.79;98974.66;435399;1254;96667;-41
2023/04/18 23:09:33;;;;;;;29.00;18.70;;;;;;;9.97;80.72;98964.98;435266;1254;107464;-41
2023/04/18 23:19:38;;;;;;;;;;;;;;;9.81;80.72;98948.31;435436;1254;96673;-40
2023/04/18 23:29:49;;;;;;;32.60;18.90;;;;;;;9.65;80.76;98940.27;435417;1253;97471;-41
2023/04/18 23:39:56;;;;;;;26.90;17.20;;;;;;;9.59;80.70;98925.67;435254;1250;109109;-41
2023/04/18 23:50:03;;;;;;;27.10;17.20;;;;;;;9.60;80.85;98913.72;435187;1254;107547;-41
